AirNav   Duncan Aviation - Near you to keep you flying
 
 1491 users online  

VA61 Lovettsville Airfield
Lovettsville, Virginia, USA

GOING TO LOVETTSVILLE?


FAA INFORMATION EFFECTIVE 30 DECEMBER 2021

Location

FAA Identifier: VA61
Lat/Long: 39-15-53.6100N 077-39-13.1100W
39-15.893500N 077-39.218500W
39.2648917,-77.6536417
(estimated)
Elevation: 529 ft. / 161.2 m (surveyed)
Variation: 09W (1985)
From city: 1 mile SW of LOVETTSVILLE, VA
Time zone: UTC -5 (UTC -4 during Daylight Saving Time)
Zip code: 20180

Airport Operations

Airport use: Private use. Permission required prior to landing
Activation date: 11/1970
Control tower: no
ARTCC: WASHINGTON CENTER
FSS: LEESBURG FLIGHT SERVICE STATION
Attendance: IREG
Wind indicator: yes
Segmented circle: no

Airport Communications

WX AWOS-3 at JYO (12 nm S): 125.225 (703-777-3781)
WX AWOS-3 at FDK (16 nm NE): PHONE 301-600-1457
WX ASOS at MRB (17 nm NW): 119.925 (304-264-0988)

Nearby radio navigation aids

VOR radial/distance  VOR name  Freq  Var
MRBr136/11.6MARTINSBURG VORTAC112.1007W
FDKr244/(15.7)FREDERICK VOR109.0008W
AMLr344/21.6ARMEL VOR/DME113.5008W
HGRr167/(27.6)HAGERSTOWN VOR109.8007W
EMIr254/34.2WESTMINSTER VORTAC117.9008W
LDNr052/35.6LINDEN VORTAC114.3006W
DCAr319/37.7WASHINGTON VOR/DME111.0009W
CSNr021/38.7CASANOVA VORTAC116.3006W

 
NDB name  Hdg/Dist  Freq  Var  ID
GEORGETOWN318/31.832309WGTN --. - -.

Airport Services

Airframe service: MINOR
Powerplant service: MINOR

Runway Information

Runway 1/19

Dimensions: 3000 x 50 ft. / 914 x 15 m
Surface: turf
RUNWAY 1  RUNWAY 19
Traffic pattern: leftright

Airport Ownership and Management from official FAA records

Ownership: Privately-owned
Owner: THOMAS C. POMEROY
12582 LUTHERAN CHURCH ROAD
LOVETTSVILLE, VA 20180
Phone (571) 919-7800
Manager: THOMAS C. POMEROY
12582 LUTHERAN CHURCH ROAD
LOVETTSVILLE, VA 20180
Phone (571) 919-7800

Airport Operational Statistics

Aircraft based on the field: 3
Single engine airplanes: 3
    

Additional Remarks

DEER AND GEESE INVOF OF ARPT.
CALL DURING WINTER AND EARLY SPRING OR AFTER HEAVY RAIN TO CONFIRM RY CONDITION.
FOR CD CTC POTOMAC APCH AT 866-709-4993.

Instrument Procedures

There are no published instrument procedures at VA61.

Some nearby airports with instrument procedures:

KJYO - Leesburg Executive Airport (12 nm S)
KFDK - Frederick Municipal Airport (16 nm NE)
9VA5 - Bluegrass Heliport (16 nm SW)
KMRB - Eastern WV Regional Airport/Shepherd Field (17 nm NW)
2VG2 - Upperville Airport (20 nm SW)
 
Loc | Ops | Rwys | IFR | FBO | Links
Com | Nav | Svcs | Stats | Notes
Area around VA61 (Lovettsville Airfield)
 
Road maps at: MapQuest Bing Google
 
Aerial photo
WARNING: Photo may not be current or correct
Aerial photo of VA61 (Lovettsville Airfield)
Photo taken 24-Aug-2014
looking north.

Do you have a better or more recent aerial photo of Lovettsville Airfield that you would like to share? If so, please send us your photo.

 
Sectional chart

 
Airport distance calculator
Flying to Lovettsville Airfield? Find the distance to fly.

From to VA61

Sunrise and sunset
Times for 24-Jan-2022
 Local
(UTC-5)
 Zulu
(UTC)
Morning civil twilight06:5611:56
Sunrise07:2512:25
Sunset17:2122:21
Evening civil twilight17:4922:49

Current date and time
Zulu (UTC)  24-Jan-2022 19:26:35
Local (UTC-5)  24-Jan-2022 14:26:35
 
METAR
KJYO 
13nm S 
241915Z AUTO 20010KT 10SM CLR 04/M03 A2983 RMK AO2
KFDK 
16nm NE 
241847Z 20005KT 10SM CLR 03/M07 A2984
KMRB 
17nm NW 
241853Z 14005KT 10SM FEW095 02/M08 A2979 RMK AO2 SLP092 T00171078
KIAD 
22nm SE 
241852Z 21010G18KT 10SM SCT200 BKN250 05/M07 A2984 RMK AO2 SLP107 T00501067
KGAI 
23nm E 
241856Z AUTO 19010KT 10SM CLR 04/M07 A2984 RMK AO2 SLP123 T00441072
KOKV 
24nm W 
241915Z AUTO 17009KT 10SM CLR 02/M06 A2977 RMK AO2
TAF
KMRB 
17nm NW 
241736Z 2418/2518 16008KT P6SM SCT080 OVC100 FM250000 17005KT P6SM SCT025 BKN035 OVC050 FM250400 VRB03KT P6SM SCT025 BKN035 OVC050 FM250600 00000KT P6SM BKN025 OVC050 FM251300 33008KT P6SM SCT025 BKN035
NOTAMs
Click for the latest NOTAMs
NOTAMs are issued by the DoD/FAA and will open in a separate window not controlled by AirNav.

 

 
 

Would you like to see your business listed on this page?

 If your business provides an interesting product or service to pilots, flight crews, aircraft, or users of the Lovettsville Airfield, you should consider listing it here.  To start the listing process, click on the button below
 
Add a business
 

Other Pages about Lovettsville Airfield

Update a link
 
Copyright © AirNav, LLC. All rights reserved. Privacy Policy  Contact